Terminal Aerodrome Forecast
Issued by NWS

Current Version | Previous Version | Text Only | Print | Product List | Glossary On
Versions: 1 2 3 4 5 6 7 8 9 10 11 12 13 14 15 16 17 18 19 20 21 22 23 24
000
FTUS43 KGRB 020900 AAA
TAFATW
TAF AMD
KATW 020907Z 0209/0306 27006KT 6SM BR SKC
      TEMPO 0211/0213 3SM BR
     FM021300 04005KT P6SM SCT050 SCT080
     FM021800 07007KT P6SM FEW060
     FM030100 13004KT P6SM SKC=

USA.gov is the U.S. government's official web portal to all federal, state and local government web resources and services.